Flight Track Log - Related Links

Times and Time Zones

All times are in EST time to prevent confusion due to time zone crossing. See the SWA2150 flight status page for this flight to view local times or setup timezone preferences in your user account.

Time Position Orientation Groundspeed Altitude Reporting Facility
EST Latitude Longitude Course Direction KTS MPH feet Rate Location/Type
Mon 02:25:19 PM 33.4333 -111.9833 90° East 166 191 2,100  Level Phoenix TRACON
Mon 02:26:01 PM 33.4333 -111.9333 90° East 184 212 3,200 1,706 Climbing Phoenix TRACON
Mon 02:27:01 PM 33.4333 -111.8667 90° East 265 305 5,000 2,529 Climbing Phoenix TRACON
Mon 02:28:02 PM 33.5167 -111.8333 18° North 279 321 8,300 3,025 Climbing Phoenix TRACON
Mon 02:29:02 PM 33.5667 -111.9000 312° West 302 348 11,100 2,719 Climbing Phoenix TRACON
Mon 02:30:21 PM 33.6650 -111.9847 324° Northwest 348 400 14,600 2,809 Climbing Albuquerque Center
Mon 02:31:23 PM 33.7444 -112.0608 321° Northwest 359 413 17,700 2,855 Climbing Albuquerque Center
Mon 02:32:25 PM 33.8264 -112.1400 321° Northwest 372 428 20,500 2,516 Climbing Albuquerque Center
Mon 02:33:27 PM 33.9117 -112.2217 322° Northwest 385 443 22,900 2,208 Climbing Albuquerque Center
Mon 02:34:30 PM 34.0003 -112.3081 321° Northwest 403 464 25,100 2,016 Climbing Albuquerque Center
Mon 02:35:32 PM 34.1006 -112.3803 329° Northwest 416 479 27,100 2,049 Climbing Albuquerque Center
Mon 02:36:33 PM 34.2308 -112.4583 334° Northwest 432 497 29,300 2,129 Climbing Albuquerque Center
Mon 02:38:38 PM 34.3733 -112.6581 311° West 406 467 33,700 1,508 Climbing Los Angeles Center
Mon 02:39:40 PM 34.4303 -112.7650 303° West 391 450 34,000 145 Climbing Los Angeles Center
Mon 02:40:42 PM 34.4967 -112.8906 303° West 377 434 34,000 732 Level Los Angeles Center
Mon 02:41:43 PM 34.5506 -112.9969 302° West 375 432 35,500 1,902 Climbing Albuquerque Center
Mon 02:42:45 PM 34.6033 -113.0986 302° West 365 420 37,900 1,210 Climbing Albuquerque Center
Mon 02:43:47 PM 34.6497 -113.1908 301° West 334 384 38,000 48 Climbing Albuquerque Center
Mon 02:44:49 PM 34.6981 -113.2856 302° West 330 380 38,000  Level Albuquerque Center
Mon 02:45:51 PM 34.7450 -113.3803 301° West 327 376 38,000  Level Albuquerque Center
Mon 02:46:53 PM 34.8022 -113.4947 301° West 329 379 38,000  Level Albuquerque Center
Mon 02:47:55 PM 34.8517 -113.5900 302° West 332 382 38,000  Level Albuquerque Center
Mon 02:48:57 PM 34.9003 -113.6869 301° West 334 384 38,000  Level Albuquerque Center
Mon 02:49:59 PM 34.9472 -113.7833 301° West 333 383 38,000  Level Albuquerque Center
Mon 02:51:01 PM 34.9958 -113.8808 301° West 334 384 38,000  Level Albuquerque Center
Mon 02:52:03 PM 35.0444 -113.9800 301° West 340 391 38,000  Level Albuquerque Center
Mon 02:53:05 PM 35.1006 -114.0942 301° West 344 396 38,000  Level Albuquerque Center
Mon 02:54:07 PM 35.1508 -114.1958 301° West 348 400 38,000  Level Albuquerque Center
Mon 02:55:25 PM 35.2233 -114.3394 302° West 354 407 38,000  Level Los Angeles Center
Mon 02:56:27 PM 35.2742 -114.4458 300° West 361 415 38,000  Level Los Angeles Center
Mon 02:57:29 PM 35.3261 -114.5533 301° West 366 421 38,000  Level Los Angeles Center
Mon 02:58:31 PM 35.3789 -114.6622 301° West 370 426 38,000  Level Los Angeles Center
Mon 02:59:33 PM 35.4331 -114.7711 301° West 374 430 38,000  Level Los Angeles Center
Mon 03:00:35 PM 35.5008 -114.8747 309° West 392 451 38,000  Level Los Angeles Center
Mon 03:01:37 PM 35.5872 -114.9961 311° West 393 452 38,000 -384 Level Los Angeles Center
Mon 03:02:40 PM 35.6597 -115.0994 311° West 399 459 37,200 -816 Descending Los Angeles Center
Mon 03:03:42 PM 35.7339 -115.2039 311° West 403 464 36,300 -581 Descending Los Angeles Center
Mon 03:04:44 PM 35.8094 -115.3089 312° West 407 468 36,000 -145 Descending Los Angeles Center
Mon 03:05:46 PM 35.8822 -115.4136 311° West 404 465 36,000  Level Los Angeles Center
Mon 03:06:48 PM 35.9550 -115.5175 311° West 400 460 36,000  Level Los Angeles Center
Mon 03:07:50 PM 36.0269 -115.6208 311° West 396 456 36,000  Level Los Angeles Center
Mon 03:08:52 PM 36.1142 -115.7469 311° West 397 457 36,000  Level Los Angeles Center
Mon 03:09:55 PM 36.1872 -115.8528 311° West 400 460 36,000 -432 Level Los Angeles Center
Mon 03:10:57 PM 36.2553 -115.9503 311° West 398 458 35,100 -919 Descending Los Angeles Center
Mon 03:11:59 PM 36.3286 -116.0553 311° West 401 461 34,100 -532 Descending Los Angeles Center
Mon 03:13:01 PM 36.3992 -116.1597 310° West 398 458 34,000 -44 Descending Los Angeles Center
Mon 03:14:15 PM 36.4908 -116.2894 311° West 394 453 34,000  Level Los Angeles Center
Mon 03:15:18 PM 36.5692 -116.4061 310° West 391 450 34,000  Level Los Angeles Center
Mon 03:16:20 PM 36.6397 -116.5114 310° West 394 453 34,000  Level Los Angeles Center
Mon 03:17:22 PM 36.7094 -116.6125 311° West 389 448 34,000  Level Los Angeles Center
Mon 03:18:36 PM 36.7789 -116.7183 309° West 392 451 34,000  Level Los Angeles Center
Mon 03:19:39 PM 36.8742 -116.8289 317° Northwest 390 449 34,000  Level Los Angeles Center
Mon 03:20:41 PM 36.9703 -116.9381 318° Northwest 388 447 34,000  Level Los Angeles Center
Mon 03:21:43 PM 37.0517 -117.0294 318° Northwest 392 451 34,000  Level Los Angeles Center
Mon 03:22:45 PM 37.1317 -117.1208 318° Northwest 391 450 34,000  Level Los Angeles Center
Mon 03:23:47 PM 37.2122 -117.2119 318° Northwest 389 448 34,000  Level Los Angeles Center
Mon 03:24:49 PM 37.2919 -117.3025 318° Northwest 388 447 34,000  Level Los Angeles Center
Mon 03:25:51 PM 37.3756 -117.3928 319° Northwest 394 453 34,000 -453 Level Los Angeles Center
Mon 03:26:35 PM 37.4414 -117.4633 320° Northwest 391 450 33,200 -1,019 Descending Oakland Center
Mon 03:27:37 PM 37.5256 -117.5467 322° Northwest 388 447 32,200 -585 Descending Oakland Center
Mon 03:28:38 PM 37.6206 -117.6203 328° Northwest 398 458 32,000 -98 Descending Oakland Center
Mon 03:29:40 PM 37.7119 -117.6936 328° Northwest 391 450 32,000  Level Oakland Center
Mon 03:30:42 PM 37.8053 -117.7667 328° Northwest 390 449 32,000 -341 Level Oakland Center
Mon 03:31:43 PM 37.9158 -117.8544 328° Northwest 388 447 31,300 -829 Descending Oakland Center
Mon 03:32:45 PM 38.0067 -117.9267 328° Northwest 383 441 30,300 -1,016 Descending Oakland Center
Mon 03:33:47 PM 38.0950 -117.9972 328° Northwest 374 430 29,200 -1,024 Descending Oakland Center
Mon 03:34:48 PM 38.1806 -118.0681 327° Northwest 366 421 28,200 -585 Descending Oakland Center
Mon 03:35:50 PM 38.2631 -118.1322 329° Northwest 360 414 28,000 -97 Descending Oakland Center
Mon 03:36:52 PM 38.3478 -118.2028 327° Northwest 363 418 28,000  Level Oakland Center
Mon 03:37:53 PM 38.4308 -118.2733 326° Northwest 359 413 28,000  Level Oakland Center
Mon 03:38:55 PM 38.5006 -118.3636 315° West 357 411 28,000  Level Oakland Center
Mon 03:39:57 PM 38.5844 -118.4661 316° Northwest 348 400 28,000  Level Oakland Center
Mon 03:40:58 PM 38.6547 -118.5525 316° Northwest 349 402 28,000  Level Oakland Center
Mon 03:42:00 PM 38.7281 -118.6433 316° Northwest 363 418 28,000 -242 Level Oakland Center
Mon 03:43:02 PM 38.7989 -118.7328 315° West 359 413 27,500 -780 Descending Oakland Center
Mon 03:44:03 PM 38.8667 -118.8192 315° West 346 398 26,400 -1,220 Descending Oakland Center
Mon 03:45:05 PM 38.9347 -118.9017 317° Northwest 336 387 25,000 -1,548 Descending Oakland Center
Mon 03:46:07 PM 38.9978 -118.9814 316° Northwest 322 371 23,200 -1,805 Descending Oakland Center
Mon 03:47:08 PM 39.0594 -119.0583 316° Northwest 310 357 21,300 -1,805 Descending Oakland Center
Mon 03:48:10 PM 39.1194 -119.1342 316° Northwest 304 350 19,500 -1,854 Descending Oakland Center
Mon 03:49:11 PM 39.1875 -119.2211 315° West 288 331 17,500 -1,951 Descending Oakland Center
Mon 03:50:13 PM 39.2511 -119.3003 316° Northwest 311 358 15,500 -1,694 Descending Oakland Center
Mon 03:51:15 PM 39.3144 -119.3811 315° West 319 367 14,000 -732 Descending Oakland Center
Mon 03:52:16 PM 39.3683 -119.4439 318° Northwest 278 320 14,000  Level Oakland Center
Mon 03:53:18 PM 39.4208 -119.4928 324° Northwest 240 276 14,000  Level Oakland Center
Mon 03:54:19 PM 39.4669 -119.5353 325° Northwest 216 249 14,000 49 Level Oakland Center
Mon 03:55:21 PM 39.5236 -119.5550 345° North 233 268 14,100  Climbing Oakland Center
Mon 03:56:22 PM 39.5822 -119.5686 350° North 219 252 14,000 -683 Descending Oakland Center
Mon 03:57:24 PM 39.6428 -119.5886 346° North 218 251 12,700 -1,500 Descending Oakland Center
Mon 03:58:26 PM 39.6833 -119.6431 314° West 220 253 10,900 -1,317 Descending Oakland Center
Mon 03:59:27 PM 39.6772 -119.7100 263° West 192 221 10,000 -1,171 Descending Oakland Center
Mon 04:00:29 PM 39.6672 -119.7564 254° West 171 197 8,500 -878 Descending Oakland Center
Mon 04:01:30 PM 39.6331 -119.7872 215° Southwest 168 193 8,200 -1,286 Descending Oakland Center
Mon 04:02:49 PM 39.5667 -119.7667 167° South 155 178 5,500 -1,511 Descending Northern Cal TRACON
Mon 04:03:49 PM 39.5167 -119.7667 180° South 150 173 4,700 -800 Descending Northern Cal TRACON

Login

Don't have an account? Register now (free) for customized features, flight alerts, and more!